• Join FlightAware (Why Join?)
  • Login
  • US Flag 
07:05AM EDT


 

Airport Tracker/Info


-or-


 

Live Flight TrackerFlight Track Log ✈ SWA655 ✈ 26-Jul-2014 ✈ KHOU - KABQ

Flight Track Log - Related Links

Times and Time Zones

All times are in EDT time to prevent confusion due to time zone crossing. See the SWA655 flight status page for this flight to view local times or setup timezone preferences in your user account.

Time Position Orientation Groundspeed Altitude Reporting Facility
EDT Latitude Longitude Course Direction KTS MPH feet Rate Location/Type
09:28PM 29.6353 -95.2892 230° Southwest 105 121 600  Level Houston Center
09:29PM 29.6203 -95.3097 230° Southwest 164 189 1,800 2,040 Climbing Houston Center
09:30PM 29.6197 -95.3697 269° West 212 244 3,800 2,700 Climbing Houston Center
09:31PM 29.6544 -95.4497 297° West 272 313 7,300 3,240 Climbing Houston Center
09:32PM 29.6864 -95.5342 294° West 284 327 10,500 2,580 Climbing Houston Center
09:33PM 29.7208 -95.6275 293° West 313 360 12,600 2,340 Climbing Houston Center
09:34PM 29.7608 -95.7344 293° West 358 412 15,300 2,460 Climbing Houston Center
09:35PM 29.8019 -95.8447 293° West 370 426 17,700 2,280 Climbing Houston Center
09:36PM 29.8456 -95.9594 294° West 388 447 20,000 2,220 Climbing Houston Center
09:37PM 29.8917 -96.0847 293° West 400 460 22,200 1,980 Climbing Houston Center
09:38PM 29.9361 -96.2106 292° West 423 487 24,100 1,860 Climbing Houston Center
09:39PM 29.9589 -96.3461 281° West 431 496 26,000 1,740 Climbing Houston Center
09:40PM 29.9875 -96.4828 284° West 440 506 27,700 1,500 Climbing Houston Center
09:41PM 30.0278 -96.6214 289° West 455 524 29,100 1,320 Climbing Houston Center
09:42PM 30.0689 -96.7639 288° West 467 537 30,400 1,680 Climbing Houston Center
09:43PM 30.1142 -96.9247 288° West 478 550 32,600 1,860 Climbing Houston Center
09:44PM 30.1542 -97.0694 288° West 475 547 34,200 1,380 Climbing Houston Center
09:45PM 30.1944 -97.2125 288° West 471 542 35,500 1,140 Climbing Houston Center
09:46PM 30.2353 -97.3592 288° West 471 542 36,600 1,020 Climbing Houston Center
09:47PM 30.2756 -97.5072 288° West 478 550 37,600 660 Climbing Houston Center
09:48PM 30.3169 -97.6544 288° West 478 550 38,000 180 Climbing Houston Center
09:49PM 30.3631 -97.7989 290° West 478 550 38,000  Level Houston Center
09:50PM 30.4300 -97.9339 300° West 478 550 38,000  Level Houston Center
09:51PM 30.4942 -98.0700 299° West 479 551 38,000  Level Houston Center
09:52PM 30.5575 -98.2047 299° West 478 550 38,000  Level Houston Center
09:53PM 30.6217 -98.3408 299° West 478 550 38,000  Level Houston Center
09:54PM 30.6853 -98.4758 299° West 478 550 38,000  Level Houston Center
09:55PM 30.7492 -98.6117 299° West 478 550 38,000  Level Houston Center
09:56PM 30.8131 -98.7469 299° West 478 550 38,000  Level Houston Center
09:57PM 30.8889 -98.9092 299° West 478 550 38,000  Level Houston Center
09:58PM 30.9506 -99.0442 298° West 476 548 38,000  Level Houston Center
09:59PM 31.0097 -99.1742 298° West 475 547 38,000  Level Houston Center
10:00PM 31.0706 -99.3064 298° West 471 542 38,000  Level Houston Center
10:01PM 31.1325 -99.4419 298° West 472 543 38,000  Level Fort Worth Center
10:02PM 31.2058 -99.6031 298° West 472 543 38,000  Level Fort Worth Center
10:03PM 31.2667 -99.7350 298° West 466 536 38,000  Level Fort Worth Center
10:04PM 31.3278 -99.8689 298° West 467 537 38,000  Level Fort Worth Center
10:05PM 31.3883 -100.0056 297° West 472 543 38,000  Level Fort Worth Center
10:06PM 31.4497 -100.1422 298° West 474 545 38,000  Level Fort Worth Center
10:08PM 31.5111 -100.2794 298° West 475 547 38,000  Level Fort Worth Center
10:09PM 31.5725 -100.4158 298° West 476 548 38,000  Level Fort Worth Center
10:10PM 31.6328 -100.5558 297° West 484 557 38,000  Level Fort Worth Center
10:11PM 31.7022 -100.7139 297° West 464 534 38,000  Level Fort Worth Center
10:12PM 31.7647 -100.8528 298° West 473 544 38,000  Level Fort Worth Center
10:13PM 31.8247 -100.9889 297° West 473 544 38,000  Level Fort Worth Center
10:14PM 31.8847 -101.1258 297° West 471 542 38,000  Level Fort Worth Center
10:15PM 31.9453 -101.2636 297° West 473 544 38,000  Level Fort Worth Center
10:16PM 32.0064 -101.4028 297° West 476 548 38,000  Level Fort Worth Center
10:17PM 32.0656 -101.5417 297° West 479 551 38,000  Level Fort Worth Center
10:18PM 32.1253 -101.6797 297° West 478 550 38,000  Level Fort Worth Center
10:19PM 32.1833 -101.8175 296° West 472 543 38,000  Level Fort Worth Center
10:20PM 32.2433 -101.9575 297° West 477 549 38,000  Level Fort Worth Center
10:21PM 32.3019 -102.0967 297° West 477 549 38,000  Level Fort Worth Center
10:22PM 32.3608 -102.2367 297° West 476 548 38,000  Level Fort Worth Center
10:23PM 32.4300 -102.4042 296° West 477 549 38,000  Level Fort Worth Center
10:24PM 32.4908 -102.5453 297° West 487 560 38,000  Level Fort Worth Center
10:25PM 32.5458 -102.6772 296° West 487 560 38,000  Level Fort Worth Center
10:26PM 32.6047 -102.8172 297° West 475 547 38,000  Level Fort Worth Center
10:27PM 32.6642 -102.9592 296° West 478 550 38,000  Level Fort Worth Center
10:28PM 32.7350 -103.1303 296° West 480 552 38,000  Level Fort Worth Center
10:29PM 32.7939 -103.2717 296° West 480 552 38,000  Level Fort Worth Center
10:30PM 32.8522 -103.4147 296° West 481 554 38,000  Level Fort Worth Center
10:31PM 32.8975 -103.5297 295° West 481 554 38,000  Level Albuquerque Center
10:32PM 32.9700 -103.6617 303° West 482 555 38,000  Level Albuquerque Center
10:33PM 33.0847 -103.7842 318° Northwest 491 565 38,000  Level Albuquerque Center
10:34PM 33.1756 -103.8978 314° West 477 549 38,000  Level Albuquerque Center
10:35PM 33.2778 -104.0200 315° West 481 554 38,000  Level Albuquerque Center
10:36PM 33.3694 -104.1314 315° West 477 549 38,000  Level Albuquerque Center
10:37PM 33.4664 -104.2269 321° Northwest 461 531 38,000  Level Albuquerque Center
10:38PM 33.5833 -104.2864 337° Northwest 458 527 38,000  Level Albuquerque Center
10:39PM 33.7133 -104.3331 343° North 460 529 38,000  Level Albuquerque Center
10:40PM 33.8361 -104.3419 357° North 443 510 38,000  Level Albuquerque Center
10:41PM 33.9619 -104.3517 356° North 449 517 38,000  Level Albuquerque Center
10:42PM 34.0872 -104.3600 357° North 450 518 38,000 -540 Level Albuquerque Center
10:43PM 34.2061 -104.4025 344° North 448 516 37,000 -1,020 Descending Albuquerque Center
10:44PM 34.2811 -104.5253 306° West 451 519 36,000 -540 Descending Albuquerque Center
10:45PM 34.3422 -104.6631 298° West 452 520 36,000  Level Albuquerque Center
10:46PM 34.4008 -104.8011 297° West 453 521 36,000 -480 Level Albuquerque Center
10:47PM 34.4597 -104.9392 297° West 453 521 35,100 -960 Descending Albuquerque Center
10:48PM 34.5047 -105.0811 291° West 452 520 34,100 -1,020 Descending Albuquerque Center
10:49PM 34.5489 -105.2211 291° West 445 512 33,100 -1,560 Descending Albuquerque Center
10:50PM 34.5919 -105.3575 291° West 434 499 31,000 -1,980 Descending Albuquerque Center
10:51PM 34.6353 -105.4931 291° West 431 496 29,100 -1,800 Descending Albuquerque Center
10:52PM 34.6767 -105.6231 291° West 417 480 27,400 -1,680 Descending Albuquerque Center
10:53PM 34.7158 -105.7486 291° West 403 464 25,700 -1,680 Descending Albuquerque Center
10:54PM 34.7547 -105.8722 291° West 393 452 24,000 -1,800 Descending Albuquerque Center
10:55PM 34.7800 -105.9617 289° West 379 436 22,800 -1,860 Descending Albuquerque Center
10:55PM 34.7997 -106.0236 291° West 374 430 21,800 -1,260 Descending Albuquerque Center
10:56PM 34.8286 -106.1150 291° West 374 430 21,000 -1,140 Descending Albuquerque Center
10:56PM 34.8369 -106.1486 287° West 360 414 20,700 -1,620 Descending Albuquerque Center
10:57PM 34.8483 -106.2594 277° West 337 388 19,100 -1,620 Descending Albuquerque Center
10:58PM 34.8458 -106.3436 268° West 345 397 17,800 -1,620 Descending Albuquerque Center
10:58PM 34.8453 -106.3742 269° West 335 386 17,500 -1,920 Descending Albuquerque Center
10:59PM 34.8322 -106.4542 259° West 332 382 15,900 -2,040 Descending Albuquerque Center
11:00PM 34.8158 -106.5625 260° West 328 377 13,800 -2,100 Descending Albuquerque Center
11:01PM 34.7986 -106.6672 259° West 316 364 11,700 -1,980 Descending Albuquerque Center
11:02PM 34.7817 -106.7697 259° West 310 357 9,800 -1,500 Descending Albuquerque Center
11:03PM 34.8317 -106.8403 311° West 295 339 8,700 -1,020 Descending Albuquerque Center
11:04PM 34.8978 -106.7828 35° Northeast 244 281 7,800 -660 Descending Albuquerque Center
11:05PM 34.9406 -106.7297 45° Northeast 223 257 7,400 -660 Descending Albuquerque Center
11:06PM 34.9714 -106.6911 46° Northeast 158 182 6,600 -780 Descending Albuquerque Center
11:07PM 35.0014 -106.6550 45° Northeast 144 166 5,900 -660 Descending Albuquerque Center
11:08PM 35.0300 -106.6208 44° Northeast 154 177 5,300 -540 Descending Albuquerque Center
11:10PM 35.0333 -106.6000 90° East  Level FlightAware Approximate